Time;durP1;ratioP1;P1;durP2;ratioP2;P2;SDS_P1;SDS_P2;PMS_P1;PMS_P2;Temp;Humidity;BMP_temperature;BMP_pressure;BME280_temperature;BME280_humidity;BME280_pressure;Samples;Min_cycle;Max_cycle;Signal;HPM_P1;HPM_P2
2023/03/29 00:01:41;;;;;;;;;;;;;;;3.94;42.50;95512.19;5057465;28;19929;-66
2023/03/29 00:04:08;;;;;;;;;;;;;;;4.22;42.24;95507.56;5066550;28;20273;-68
2023/03/29 00:06:36;;;;;;;;;;;;;;;4.65;41.39;95495.69;5066308;28;19929;-68
2023/03/29 00:09:04;;;;;;;;;;;;;;;4.69;41.17;95499.47;5067586;28;20570;-67
2023/03/29 00:11:32;;;;;;;;;;;;;;;4.40;41.18;95494.75;5058334;28;20336;-69
2023/03/29 00:14:00;;;;;;;;;;;;;;;4.44;41.32;95490.78;5063235;28;20020;-67
2023/03/29 00:16:27;;;;;;;;;;;;;;;4.58;41.41;95487.13;5059416;28;19928;-66
2023/03/29 00:18:54;;;;;;;;;;;;;;;4.96;40.58;95482.81;5067219;28;19950;-66
2023/03/29 00:21:21;;;;;;;;;;;;;;;4.61;40.57;95483.34;5064544;28;19928;-64
2023/03/29 00:23:49;;;;;;;;;;;;;;;3.90;41.82;95485.84;5068554;28;20026;-70
2023/03/29 00:26:16;;;;;;;;;;;;;;;4.02;41.53;95486.84;5065594;28;19960;-67
2023/03/29 00:28:42;;;;;;;;;;;;;;;4.19;41.13;95476.84;5069552;28;20373;-68
2023/03/29 00:31:11;;;;;;;;;;;;;;;4.01;41.74;95481.84;5066047;28;19929;-65
2023/03/29 00:33:38;;;;;;;;;;;;;;;4.55;40.78;95479.75;5069883;28;20008;-68
2023/03/29 00:36:05;;;;;;;;;;;;;;;4.19;40.94;95484.63;5065965;28;20031;-68
2023/03/29 00:38:33;;;;;;;;;;;;;;;4.24;40.97;95484.81;5063418;28;19929;-67
2023/03/29 00:41:02;;;;;;;;;;;;;;;4.64;40.42;95475.94;5067709;28;19932;-66
2023/03/29 00:43:30;;;;;;;;;;;;;;;4.06;41.03;95482.03;5071483;28;19963;-67
2023/03/29 00:45:58;;;;;;;;;;;;;;;3.94;41.51;95488.84;5069628;28;19929;-67
2023/03/29 00:48:27;;;;;;;;;;;;;;;4.24;40.98;95484.81;5070603;28;19928;-68
2023/03/29 00:50:54;;;;;;;;;;;;;;;4.61;40.07;95486.75;5069008;28;19932;-68
2023/03/29 00:53:28;;;;;;;;;;;;;;;4.63;39.66;95489.94;5042166;28;19966;-67
2023/03/29 00:55:54;;;;;;;;;;;;;;;4.22;40.61;95476.44;5054037;28;19928;-66
2023/03/29 00:58:23;;;;;;;;;;;;;;;4.16;40.49;95468.69;5059944;28;19928;-68
2023/03/29 01:00:56;;;;;;;;;;;;;;;4.52;39.87;95481.97;5067270;28;19934;-65
2023/03/29 01:03:27;;;;;;;;;;;;;;;4.19;40.14;95479.44;5061497;28;19935;-67
2023/03/29 01:06:00;;;;;;;;;;;;;;;4.17;40.21;95489.22;5069375;28;20373;-65
2023/03/29 01:08:33;;;;;;;;;;;;;;;4.24;40.34;95505.56;5061573;28;20033;-67
2023/03/29 01:11:03;;;;;;;;;;;;;;;4.06;40.40;95500.19;5069051;28;20434;-66
2023/03/29 01:13:40;;;;;;;;;;;;;;;3.97;40.79;95504.00;5044705;28;20447;-66
2023/03/29 01:16:10;;;;;;;;;;;;;;;4.24;40.58;95505.56;5038278;28;19929;-68
2023/03/29 01:18:38;;;;;;;;;;;;;;;4.05;40.57;95506.41;5046953;28;19951;-66
2023/03/29 01:21:19;;;;;;;;;;;;;;;4.25;40.34;95501.19;5051228;28;19931;-68
2023/03/29 01:24:05;;;;;;;;;;;;;;;4.34;40.29;95515.53;5049985;28;19924;-66
2023/03/29 01:26:55;;;;;;;;;;;;;;;3.89;40.98;95507.56;5047744;28;19924;-68
2023/03/29 01:29:25;;;;;;;;;;;;;;;4.13;40.89;95503.56;5012972;28;20032;-67
2023/03/29 01:31:56;;;;;;;;;;;;;;;4.21;40.32;95498.19;5065594;28;19934;-66
2023/03/29 01:34:37;;;;;;;;;;;;;;;3.87;40.98;95500.97;5051467;28;19928;-68
2023/03/29 01:37:16;;;;;;;;;;;;;;;3.87;40.51;95511.34;5067992;28;20325;-66
2023/03/29 01:39:42;;;;;;;;;;;;;;;4.05;40.47;95509.00;5069995;28;19932;-66
2023/03/29 01:42:26;;;;;;;;;;;;;;;4.04;40.38;95509.97;5060890;28;19925;-66
2023/03/29 01:45:14;;;;;;;;;;;;;;;3.87;40.45;95504.38;5069556;28;19981;-67
2023/03/29 01:47:47;;;;;;;;;;;;;;;4.27;39.72;95499.19;5059469;28;19990;-66
2023/03/29 01:50:22;;;;;;;;;;;;;;;4.20;39.77;95499.19;5069519;28;19940;-66
2023/03/29 01:52:53;;;;;;;;;;;;;;;4.07;39.88;95504.38;5061236;28;19929;-67
2023/03/29 01:55:42;;;;;;;;;;;;;;;4.47;39.01;95498.13;5052468;28;19940;-67
2023/03/29 01:58:10;;;;;;;;;;;;;;;4.17;39.22;95499.59;5019249;28;20400;-69
2023/03/29 02:00:39;;;;;;;;;;;;;;;3.77;39.95;95498.00;5026887;28;19956;-67
2023/03/29 02:03:07;;;;;;;;;;;;;;;3.70;40.11;95507.56;5025252;28;19929;-69
2023/03/29 02:05:36;;;;;;;;;;;;;;;4.44;39.28;95506.34;5035353;28;19929;-70
2023/03/29 02:08:04;;;;;;;;;;;;;;;4.37;39.13;95500.38;5022148;28;20378;-66
2023/03/29 02:10:32;;;;;;;;;;;;;;;4.51;38.83;95507.13;5031641;28;19987;-66
2023/03/29 02:12:59;;;;;;;;;;;;;;;4.83;38.46;95500.25;5024793;28;19961;-69
2023/03/29 02:15:26;;;;;;;;;;;;;;;4.38;38.90;95516.75;5028904;28;19933;-67
2023/03/29 02:17:55;;;;;;;;;;;;;;;4.25;39.46;95512.38;5025594;28;19956;-67
2023/03/29 02:20:22;;;;;;;;;;;;;;;4.03;39.78;95509.16;5027837;28;19929;-67
2023/03/29 02:22:55;;;;;;;;;;;;;;;4.49;38.83;95516.91;5024807;28;19925;-66
2023/03/29 02:25:23;;;;;;;;;;;;;;;4.38;38.93;95522.69;5029104;28;19944;-67
2023/03/29 02:27:50;;;;;;;;;;;;;;;4.08;39.12;95521.53;5028084;28;19937;-67
2023/03/29 02:30:21;;;;;;;;;;;;;;;4.46;38.77;95527.69;5027348;28;19929;-66
2023/03/29 02:32:55;;;;;;;;;;;;;;;4.15;38.97;95527.53;5016330;28;20479;-69
2023/03/29 02:35:39;;;;;;;;;;;;;;;4.09;39.17;95526.53;5016221;28;19933;-67
2023/03/29 02:38:07;;;;;;;;;;;;;;;3.94;39.36;95527.72;5016554;28;19956;-67
2023/03/29 02:40:36;;;;;;;;;;;;;;;3.74;39.78;95534.69;5026336;28;20499;-67
2023/03/29 02:43:04;;;;;;;;;;;;;;;4.25;39.01;95517.56;5030448;28;19932;-66
2023/03/29 02:45:31;;;;;;;;;;;;;;;4.26;38.56;95507.97;5041319;28;19967;-68
2023/03/29 02:48:01;;;;;;;;;;;;;;;4.38;38.95;95524.53;5018806;28;20024;-66
2023/03/29 02:50:32;;;;;;;;;;;;;;;4.27;38.52;95525.91;5029020;28;19929;-67
2023/03/29 02:53:03;;;;;;;;;;;;;;;4.04;38.91;95541.09;5034207;28;19926;-66
2023/03/29 02:55:33;;;;;;;;;;;;;;;4.31;38.99;95536.69;5029193;28;19928;-67
2023/03/29 02:58:06;;;;;;;;;;;;;;;4.41;38.50;95545.66;5060705;28;20319;-70
2023/03/29 03:00:37;;;;;;;;;;;;;;;3.94;39.02;95540.69;5050534;28;19928;-68
2023/03/29 03:03:05;;;;;;;;;;;;;;;4.56;38.20;95545.44;5068161;28;19932;-68
2023/03/29 03:05:32;;;;;;;;;;;;;;;4.54;37.95;95537.88;5068246;28;19982;-67
2023/03/29 03:07:59;;;;;;;;;;;;;;;3.78;39.66;95543.66;5045737;28;20019;-69
2023/03/29 03:10:27;;;;;;;;;;;;;;;4.01;39.29;95549.28;5049936;28;19924;-70
2023/03/29 03:12:55;;;;;;;;;;;;;;;3.89;39.34;95546.47;5049425;28;19937;-67
2023/03/29 03:15:23;;;;;;;;;;;;;;;3.45;40.76;95551.34;5050333;28;19955;-67
2023/03/29 03:17:49;;;;;;;;;;;;;;;3.61;40.67;95552.81;5049139;28;20445;-68
2023/03/29 03:20:16;;;;;;;;;;;;;;;3.23;41.38;95546.53;5049794;28;19939;-66
2023/03/29 03:22:47;;;;;;;;;;;;;;;3.68;40.58;95556.19;5037699;28;19971;-67
2023/03/29 03:25:15;;;;;;;;;;;;;;;3.80;40.57;95563.19;5067465;28;19998;-66
2023/03/29 03:27:42;;;;;;;;;;;;;;;3.98;40.25;95557.44;5058738;28;19928;-68
2023/03/29 03:30:09;;;;;;;;;;;;;;;4.11;39.61;95557.44;5046054;28;19929;-69
2023/03/29 03:33:05;;;;;;;;;;;;;;;3.59;40.45;95553.00;5057113;28;20418;-69
2023/03/29 03:35:55;;;;;;;;;;;;;;;3.25;41.17;95570.44;5053334;28;19929;-68
2023/03/29 03:38:24;;;;;;;;;;;;;;;3.78;40.32;95572.16;5049500;28;19940;-67
2023/03/29 03:40:56;;;;;;;;;;;;;;;3.63;40.02;95563.78;5049122;28;20391;-67
2023/03/29 03:43:24;;;;;;;;;;;;;;;4.02;39.37;95569.81;5044053;28;19924;-68
2023/03/29 03:45:51;;;;;;;;;;;;;;;3.44;40.25;95574.88;5032943;28;19928;-68
2023/03/29 03:48:22;;;;;;;;;;;;;;;3.50;40.01;95574.09;5049491;28;19940;-66
2023/03/29 03:50:56;;;;;;;;;;;;;;;3.74;39.72;95563.19;5049009;28;19989;-68
2023/03/29 03:53:28;;;;;;;;;;;;;;;3.75;39.44;95586.31;5060558;28;20372;-67
2023/03/29 03:56:21;;;;;;;;;;;;;;;3.41;39.40;95585.63;5068376;28;19928;-67
2023/03/29 03:59:06;;;;;;;;;;;;;;;3.88;38.93;95585.53;5058660;28;19935;-69
2023/03/29 04:01:51;;;;;;;;;;;;;;;4.01;38.47;95601.13;5069884;28;19939;-68
2023/03/29 04:04:22;;;;;;;;;;;;;;;3.95;38.47;95605.31;5043880;28;19982;-67
2023/03/29 04:07:11;;;;;;;;;;;;;;;3.29;39.31;95602.69;5066584;28;20316;-67
2023/03/29 04:10:17;;;;;;;;;;;;;;;3.41;38.90;95599.38;5031214;28;20110;-65
2023/03/29 04:12:50;;;;;;;;;;;;;;;3.54;38.55;95599.41;4995735;28;20244;-70
2023/03/29 04:15:19;;;;;;;;;;;;;;;3.79;38.45;95605.69;5022775;28;19925;-69
2023/03/29 04:17:58;;;;;;;;;;;;;;;3.77;38.25;95596.50;5052926;28;19929;-67
2023/03/29 04:20:32;;;;;;;;;;;;;;;4.15;37.53;95602.72;5036381;28;19935;-66
2023/03/29 04:22:59;;;;;;;;;;;;;;;3.81;37.67;95600.28;5051256;28;19936;-71
2023/03/29 04:25:27;;;;;;;;;;;;;;;3.56;38.05;95604.41;5050397;28;20003;-70
2023/03/29 04:27:57;;;;;;;;;;;;;;;3.82;37.80;95610.47;5044274;28;19936;-69
2023/03/29 04:30:50;;;;;;;;;;;;;;;3.60;37.97;95577.91;5053931;28;20039;-67
2023/03/29 04:33:39;;;;;;;;;;;;;;;4.24;37.19;95614.50;5069471;28;19971;-68
2023/03/29 04:36:08;;;;;;;;;;;;;;;3.58;37.86;95610.19;5068279;28;20674;-71
2023/03/29 04:38:34;;;;;;;;;;;;;;;3.45;38.10;95613.53;5076626;28;20406;-69
2023/03/29 04:41:05;;;;;;;;;;;;;;;3.50;38.41;95613.78;5056410;28;20023;-71
2023/03/29 04:43:46;;;;;;;;;;;;;;;4.08;37.54;95614.91;5037388;28;19984;-68
2023/03/29 04:46:20;;;;;;;;;;;;;;;3.46;38.49;95643.63;5049288;28;20606;-69
2023/03/29 04:49:06;;;;;;;;;;;;;;;3.76;38.33;95620.81;5061523;28;19939;-65
2023/03/29 04:51:36;;;;;;;;;;;;;;;4.27;41.17;95621.88;5048667;28;20339;-65
2023/03/29 04:54:03;;;;;;;;;;;;;;;3.85;38.79;95630.03;5054896;28;19928;-64
2023/03/29 04:56:40;;;;;;;;;;;;;;;3.86;38.39;95632.41;5041704;28;19995;-66
2023/03/29 04:59:32;;;;;;;;;;;;;;;3.46;38.41;95641.06;5026464;28;20023;-65
2023/03/29 05:02:03;;;;;;;;;;;;;;;3.80;37.74;95634.97;5013248;28;19956;-67
2023/03/29 05:04:31;;;;;;;;;;;;;;;3.71;37.83;95646.50;5028081;28;19936;-68
2023/03/29 05:07:07;;;;;;;;;;;;;;;3.93;37.49;95645.38;5029174;28;19926;-66
2023/03/29 05:09:34;;;;;;;;;;;;;;;3.65;37.93;95639.53;5031252;28;19929;-66
2023/03/29 05:12:03;;;;;;;;;;;;;;;3.52;38.07;95655.03;5025255;28;19929;-68
2023/03/29 05:14:44;;;;;;;;;;;;;;;3.83;37.57;95663.13;5046546;28;20377;-67
2023/03/29 05:17:11;;;;;;;;;;;;;;;2.78;38.30;95662.56;5024077;28;20283;-67
2023/03/29 05:19:38;;;;;;;;;;;;;;;3.59;39.31;95661.03;5037636;28;19992;-61
2023/03/29 05:22:06;;;;;;;;;;;;;;;4.43;38.17;95664.81;5017615;28;20031;-64
2023/03/29 05:24:34;;;;;;;;;;;;;;;4.14;36.62;95676.38;5020878;28;20006;-68
2023/03/29 05:27:07;;;;;;;;;;;;;;;4.42;35.84;95674.41;5025398;28;20355;-65
2023/03/29 05:29:36;;;;;;;;;;;;;;;4.21;35.51;95687.53;5017156;28;19970;-66
2023/03/29 05:32:23;;;;;;;;;;;;;;;4.28;35.47;95683.16;5009383;28;19930;-67
2023/03/29 05:34:50;;;;;;;;;;;;;;;3.80;36.22;95687.63;5023742;28;20466;-69
2023/03/29 05:37:17;;;;;;;;;;;;;;;4.17;36.10;95686.34;5027152;28;20021;-67
2023/03/29 05:39:53;;;;;;;;;;;;;;;3.93;36.46;95689.44;5010873;28;19940;-67
2023/03/29 05:42:36;;;;;;;;;;;;;;;4.21;35.81;95687.53;5025993;28;19959;-66
2023/03/29 05:45:07;;;;;;;;;;;;;;;4.29;35.83;95695.13;5030420;28;20394;-68
2023/03/29 05:47:34;;;;;;;;;;;;;;;4.22;36.21;95704.69;5032235;28;19995;-66
2023/03/29 05:50:01;;;;;;;;;;;;;;;4.32;36.27;95707.72;5028683;28;19929;-66
2023/03/29 05:52:27;;;;;;;;;;;;;;;4.09;36.34;95704.66;5015856;28;19930;-68
2023/03/29 05:54:55;;;;;;;;;;;;;;;3.81;36.82;95716.94;5037915;28;19926;-68
2023/03/29 05:57:22;;;;;;;;;;;;;;;4.19;36.48;95705.09;5042575;28;19939;-67
2023/03/29 05:59:49;;;;;;;;;;;;;;;4.87;35.90;95725.53;5047056;28;19935;-66
2023/03/29 06:02:16;;;;;;;;;;;;;;;4.72;35.75;95709.38;5046386;28;19944;-66
2023/03/29 06:04:48;;;;;;;;;;;;;;;4.87;35.40;95709.94;5050770;28;19964;-68
2023/03/29 06:07:15;;;;;;;;;;;;;;;5.04;34.55;95705.97;5051587;28;19925;-67
2023/03/29 06:09:49;;;;;;;;;;;;;;;5.42;34.11;95698.28;5049843;28;19929;-67
2023/03/29 06:12:18;;;;;;;;;;;;;;;5.34;34.19;95715.91;5049631;28;19932;-67
2023/03/29 06:14:57;;;;;;;;;;;;;;;5.08;34.41;95733.13;5050360;28;20441;-70
2023/03/29 06:17:32;;;;;;;;;;;;;;;5.44;34.49;95726.69;5064000;28;20396;-68
2023/03/29 06:20:00;;;;;;;;;;;;;;;5.43;33.64;95719.88;5051370;28;20388;-68
2023/03/29 06:22:30;;;;;;;;;;;;;;;5.32;34.12;95717.91;5036636;28;19991;-67
2023/03/29 06:24:57;;;;;;;;;;;;;;;6.24;33.58;95714.00;5049845;28;20038;-67
2023/03/29 06:27:28;;;;;;;;;;;;;;;6.24;32.28;95716.63;5049394;28;19932;-67
2023/03/29 06:29:56;;;;;;;;;;;;;;;6.07;33.11;95723.31;5054314;28;20023;-67
2023/03/29 06:32:22;;;;;;;;;;;;;;;6.24;32.78;95718.44;5049445;28;20675;-67
2023/03/29 06:34:55;;;;;;;;;;;;;;;6.18;32.33;95735.69;5049749;28;19928;-67
2023/03/29 06:37:31;;;;;;;;;;;;;;;5.39;33.81;95734.28;5049140;28;19931;-67
2023/03/29 06:40:30;;;;;;;;;;;;;;;5.53;33.52;95743.69;5045331;28;19925;-68
2023/03/29 06:42:58;;;;;;;;;;;;;;;5.68;33.01;95739.81;5049388;28;20465;-67
2023/03/29 06:45:57;;;;;;;;;;;;;;;5.73;33.54;95736.63;5045404;28;20328;-66
2023/03/29 06:48:33;;;;;;;;;;;;;;;5.38;33.18;95754.31;5049499;28;20388;-65
2023/03/29 06:51:00;;;;;;;;;;;;;;;5.66;33.01;95749.63;5064756;28;19929;-67
2023/03/29 06:53:29;;;;;;;;;;;;;;;5.56;32.93;95753.66;5049695;28;19935;-66
2023/03/29 06:56:04;;;;;;;;;;;;;;;5.93;33.27;95737.41;5048347;28;20382;-66
2023/03/29 06:58:41;;;;;;;;;;;;;;;5.91;33.41;95747.19;5048930;28;19925;-66
2023/03/29 07:01:24;;;;;;;;;;;;;;;6.04;32.76;95736.72;5065226;28;19939;-66
2023/03/29 07:04:03;;;;;;;;;;;;;;;6.34;31.95;95743.00;5051269;28;20525;-68
2023/03/29 07:06:37;;;;;;;;;;;;;;;6.17;32.12;95739.28;5048538;28;19931;-66
2023/03/29 07:09:05;;;;;;;;;;;;;;;6.26;31.89;95732.81;5048960;28;19929;-67
2023/03/29 07:11:48;;;;;;;;;;;;;;;6.18;31.65;95733.06;5048849;28;19924;-68
2023/03/29 07:14:24;;;;;;;;;;;;;;;6.54;31.86;95741.09;5050324;28;19924;-67
2023/03/29 07:16:51;;;;;;;;;;;;;;;6.62;32.25;95733.03;5064800;28;20291;-67
2023/03/29 07:19:28;;;;;;;;;;;;;;;6.21;31.58;95730.06;5048561;28;20402;-66
2023/03/29 07:21:55;;;;;;;;;;;;;;;6.83;31.98;95727.47;5050065;28;20392;-67
2023/03/29 07:24:33;;;;;;;;;;;;;;;7.51;31.53;95732.69;5049169;28;20315;-67
2023/03/29 07:27:00;;;;;;;;;;;;;;;7.32;31.41;95728.50;5048024;28;19925;-68
2023/03/29 07:29:31;;;;;;;;;;;;;;;6.62;30.33;95714.81;5065369;28;19932;-67
2023/03/29 07:31:59;;;;;;;;;;;;;;;6.72;30.43;95738.56;5048512;28;19932;-68
2023/03/29 07:34:41;;;;;;;;;;;;;;;6.62;30.96;95733.03;5049953;28;20387;-65
2023/03/29 07:37:12;;;;;;;;;;;;;;;6.73;30.82;95721.13;5048524;28;20383;-67
2023/03/29 07:39:42;;;;;;;;;;;;;;;6.47;30.49;95732.53;5052914;28;20059;-67
2023/03/29 07:42:38;;;;;;;;;;;;;;;6.72;30.23;95722.94;5048100;28;20659;-70
2023/03/29 07:45:08;;;;;;;;;;;;;;;7.22;30.27;95714.09;5052804;28;20368;-68
2023/03/29 07:47:45;;;;;;;;;;;;;;;7.24;30.02;95720.94;5047001;28;20309;-69
2023/03/29 07:50:13;;;;;;;;;;;;;;;7.19;30.21;95704.13;5048076;28;19925;-67
2023/03/29 07:52:40;;;;;;;;;;;;;;;7.22;29.60;95709.91;5047772;28;20493;-66
2023/03/29 07:55:08;;;;;;;;;;;;;;;7.51;29.56;95697.00;5048733;28;19924;-66
2023/03/29 07:57:53;;;;;;;;;;;;;;;7.27;29.16;95704.84;5048302;28;19982;-68
2023/03/29 08:00:21;;;;;;;;;;;;;;;7.41;29.38;95701.91;5048187;28;20415;-68
2023/03/29 08:03:06;;;;;;;;;;;;;;;7.89;28.84;95715.84;5047933;28;20035;-67
2023/03/29 08:05:33;;;;;;;;;;;;;;;7.68;29.09;95686.78;5048357;28;19925;-67
2023/03/29 08:08:13;;;;;;;;;;;;;;;7.47;28.44;95669.75;5038117;28;20041;-66
2023/03/29 08:11:00;;;;;;;;;;;;;;;7.50;28.19;95687.56;5048608;28;19959;-67
2023/03/29 08:13:40;;;;;;;;;;;;;;;8.21;28.62;95682.53;5049743;28;20005;-67
2023/03/29 08:16:19;;;;;;;;;;;;;;;7.79;27.64;95683.47;5048978;28;20606;-67
2023/03/29 08:18:54;;;;;;;;;;;;;;;8.16;27.88;95684.97;5048114;28;19925;-67
2023/03/29 08:21:25;;;;;;;;;;;;;;;7.94;27.32;95670.81;5050152;28;19925;-66
2023/03/29 08:23:52;;;;;;;;;;;;;;;8.07;26.81;95670.66;5049151;28;19936;-66
2023/03/29 08:26:33;;;;;;;;;;;;;;;7.73;27.36;95673.88;5047958;28;19983;-66
2023/03/29 08:29:00;;;;;;;;;;;;;;;7.92;28.08;95672.84;5048052;28;19928;-67
2023/03/29 08:31:27;;;;;;;;;;;;;;;8.20;27.68;95675.69;5048049;28;19929;-68
2023/03/29 08:33:55;;;;;;;;;;;;;;;7.96;27.49;95674.00;5050358;28;19955;-67
2023/03/29 08:36:39;;;;;;;;;;;;;;;7.66;27.49;95679.19;5047800;28;20044;-65
2023/03/29 08:39:16;;;;;;;;;;;;;;;7.42;27.16;95674.84;5049916;28;19936;-66
2023/03/29 08:41:51;;;;;;;;;;;;;;;7.89;28.04;95678.50;5055750;28;19968;-66
2023/03/29 08:44:36;;;;;;;;;;;;;;;8.43;26.11;95667.19;5053059;28;19936;-67
2023/03/29 08:47:20;;;;;;;;;;;;;;;8.77;25.96;95672.50;5051198;28;19936;-68
2023/03/29 08:49:51;;;;;;;;;;;;;;;8.28;25.81;95672.81;5039124;28;19929;-68
2023/03/29 08:52:34;;;;;;;;;;;;;;;7.99;25.38;95668.34;5051286;28;19936;-66
2023/03/29 08:55:32;;;;;;;;;;;;;;;8.35;24.79;95662.28;5051991;28;19982;-67
2023/03/29 08:58:19;;;;;;;;;;;;;;;7.77;24.54;95675.03;5053016;28;20386;-68
2023/03/29 09:00:50;;;;;;;;;;;;;;;8.18;24.93;95662.06;5050965;28;20027;-68
2023/03/29 09:03:21;;;;;;;;;;;;;;;7.86;24.88;95671.13;5051586;28;19925;-71
2023/03/29 09:05:55;;;;;;;;;;;;;;;7.99;24.75;95663.91;5051285;28;19929;-67
2023/03/29 09:08:24;;;;;;;;;;;;;;;8.02;24.50;95647.03;5051477;28;19932;-68
2023/03/29 09:11:03;;;;;;;;;;;;;;;8.22;24.75;95668.44;5051897;28;19959;-66
2023/03/29 09:13:33;;;;;;;;;;;;;;;8.51;24.18;95659.81;5051546;28;20356;-69
2023/03/29 09:16:05;;;;;;;;;;;;;;;8.89;24.38;95657.63;5052525;28;20355;-69
2023/03/29 09:18:55;;;;;;;;;;;;;;;8.56;24.38;95654.72;5050956;28;19929;-70
2023/03/29 09:21:28;;;;;;;;;;;;;;;8.80;24.00;95651.13;5050645;28;20333;-67
2023/03/29 09:23:56;;;;;;;;;;;;;;;9.46;23.95;95644.75;5052021;28;19929;-68
2023/03/29 09:26:34;;;;;;;;;;;;;;;9.87;23.83;95631.47;5050657;28;19924;-68
2023/03/29 09:29:25;;;;;;;;;;;;;;;9.23;23.39;95640.34;5051514;28;19935;-67
2023/03/29 09:31:52;;;;;;;;;;;;;;;9.72;22.67;95639.03;5050310;28;19936;-68
2023/03/29 09:34:34;;;;;;;;;;;;;;;9.50;22.72;95638.84;5051077;28;20024;-66
2023/03/29 09:37:10;;;;;;;;;;;;;;;9.46;23.09;95634.28;5038776;28;20465;-68
2023/03/29 09:39:43;;;;;;;;;;;;;;;9.71;22.72;95626.94;5050690;28;19928;-69
2023/03/29 09:42:16;;;;;;;;;;;;;;;10.35;22.40;95629.25;5050394;28;19928;-67
2023/03/29 09:44:43;;;;;;;;;;;;;;;10.65;21.90;95636.81;5050409;28;20381;-68
2023/03/29 09:47:22;;;;;;;;;;;;;;;10.01;21.61;95624.94;5049943;28;19971;-68
2023/03/29 09:49:51;;;;;;;;;;;;;;;9.78;21.01;95617.16;5054391;28;20032;-66
2023/03/29 09:52:19;;;;;;;;;;;;;;;9.97;21.35;95632.47;5051526;28;20011;-66
2023/03/29 09:54:59;;;;;;;;;;;;;;;10.73;21.39;95629.34;5050465;28;20371;-68
2023/03/29 09:57:45;;;;;;;;;;;;;;;10.08;20.99;95633.44;5049498;28;19925;-67
2023/03/29 10:00:14;;;;;;;;;;;;;;;9.93;21.43;95625.28;5050174;28;20002;-67
2023/03/29 10:02:48;;;;;;;;;;;;;;;10.51;21.36;95627.69;5049924;28;19967;-68
2023/03/29 10:05:17;;;;;;;;;;;;;;;9.98;21.25;95623.56;5050314;28;20037;-67
2023/03/29 10:07:46;;;;;;;;;;;;;;;10.51;21.88;95625.06;5049299;28;20903;-68
2023/03/29 10:10:19;;;;;;;;;;;;;;;9.63;21.04;95603.78;5050180;28;19987;-68
2023/03/29 10:12:51;;;;;;;;;;;;;;;10.86;21.32;95610.69;5051162;28;19928;-67
2023/03/29 10:15:19;;;;;;;;;;;;;;;10.89;20.50;95615.44;5050942;28;19925;-68
2023/03/29 10:17:59;;;;;;;;;;;;;;;10.39;21.37;95604.16;5051267;28;19975;-67
2023/03/29 10:20:26;;;;;;;;;;;;;;;10.64;21.20;95601.94;5051992;28;19947;-67
2023/03/29 10:22:57;;;;;;;;;;;;;;;10.50;21.55;95611.16;5051070;28;20373;-67
2023/03/29 10:25:26;;;;;;;;;;;;;;;10.46;20.88;95614.47;5051791;28;20295;-69
2023/03/29 10:27:55;;;;;;;;;;;;;;;10.97;21.01;95617.69;5051182;28;20384;-68
2023/03/29 10:30:23;;;;;;;;;;;;;;;11.38;21.24;95613.00;5051251;28;20682;-68
2023/03/29 10:32:55;;;;;;;;;;;;;;;10.72;20.29;95612.06;5051111;28;19925;-67
2023/03/29 10:35:32;;;;;;;;;;;;;;;10.37;20.35;95600.19;5037978;28;19995;-67
2023/03/29 10:38:02;;;;;;;;;;;;;;;11.23;21.15;95595.22;5050288;28;19925;-68
2023/03/29 10:40:32;;;;;;;;;;;;;;;11.50;21.48;95587.44;5051227;28;19951;-68
2023/03/29 10:43:00;;;;;;;;;;;;;;;11.39;20.61;95596.22;5050444;28;19931;-67
2023/03/29 10:45:29;;;;;;;;;;;;;;;11.20;20.80;95596.50;5051261;28;20330;-66
2023/03/29 10:47:57;;;;;;;;;;;;;;;11.04;21.25;95607.81;5050586;28;19978;-68
2023/03/29 10:50:31;;;;;;;;;;;;;;;11.19;20.80;95599.34;5051528;28;20311;-68
2023/03/29 10:52:58;;;;;;;;;;;;;;;10.49;20.83;95588.59;5050058;28;19964;-68
2023/03/29 10:55:30;;;;;;;;;;;;;;;10.72;20.43;95592.91;5050396;28;19976;-67
2023/03/29 10:58:00;;;;;;;;;;;;;;;10.45;21.04;95597.97;5058066;28;20582;-67
2023/03/29 11:00:37;;;;;;;;;;;;;;;11.10;20.64;95590.31;5070390;28;19925;-71
2023/03/29 11:03:03;;;;;;;;;;;;;;;10.42;21.28;95581.94;5070563;28;19928;-67
2023/03/29 11:05:38;;;;;;;;;;;;;;;10.84;20.26;95581.28;5071797;28;20307;-66
2023/03/29 11:08:23;;;;;;;;;;;;;;;11.23;20.18;95563.75;5058048;28;19935;-68
2023/03/29 11:11:17;;;;;;;;;;;;;;;11.30;20.64;95558.31;5071494;28;19924;-67
2023/03/29 11:13:53;;;;;;;;;;;;;;;11.90;19.95;95556.41;5052383;28;19928;-66
2023/03/29 11:16:26;;;;;;;;;;;;;;;11.52;20.17;95570.41;5052707;28;19931;-67
2023/03/29 11:19:05;;;;;;;;;;;;;;;11.48;19.63;95555.41;5070226;28;19932;-68
2023/03/29 11:21:39;;;;;;;;;;;;;;;11.33;19.95;95555.22;5069840;28;19928;-67
2023/03/29 11:24:06;;;;;;;;;;;;;;;11.47;19.53;95545.94;5057842;28;19927;-67
2023/03/29 11:26:32;;;;;;;;;;;;;;;11.17;19.81;95541.09;5071824;28;19928;-67
2023/03/29 11:28:59;;;;;;;;;;;;;;;11.56;19.64;95547.09;5073108;28;20052;-67
2023/03/29 11:31:58;;;;;;;;;;;;;;;11.86;19.69;95540.38;5069143;28;20390;-67
2023/03/29 11:34:34;;;;;;;;;;;;;;;12.01;19.66;95550.22;5020239;28;20318;-67
2023/03/29 11:37:13;;;;;;;;;;;;;;;11.89;19.32;95552.22;5057569;28;19968;-70
2023/03/29 11:39:48;;;;;;;;;;;;;;;12.49;20.37;95558.03;5069865;28;20388;-69
2023/03/29 11:42:19;;;;;;;;;;;;;;;11.98;20.28;95563.88;5069893;28;20031;-67
2023/03/29 11:44:47;;;;;;;;;;;;;;;11.97;19.39;95564.91;5070024;28;20014;-67
2023/03/29 11:47:17;;;;;;;;;;;;;;;12.31;19.50;95557.59;5069502;28;19924;-66
2023/03/29 11:49:56;;;;;;;;;;;;;;;12.70;18.87;95540.59;5070072;28;20340;-66
2023/03/29 11:52:27;;;;;;;;;;;;;;;12.15;18.55;95562.72;5069384;28;19932;-70
2023/03/29 11:54:57;;;;;;;;;;;;;;;12.05;19.00;95556.56;5070285;28;19924;-68
2023/03/29 11:57:27;;;;;;;;;;;;;;;12.56;19.65;95542.84;5068627;28;19924;-68
2023/03/29 12:00:11;;;;;;;;;;;;;;;13.13;19.06;95554.31;5070108;28;19963;-66
2023/03/29 12:02:40;;;;;;;;;;;;;;;12.94;18.32;95534.69;5069294;28;19928;-68
2023/03/29 12:05:14;;;;;;;;;;;;;;;12.71;18.28;95524.56;5069969;28;19981;-65
2023/03/29 12:07:46;;;;;;;;;;;;;;;13.00;18.68;95544.19;5050821;28;19932;-67
2023/03/29 12:10:18;;;;;;;;;;;;;;;13.35;18.19;95524.41;5069885;28;20023;-67
2023/03/29 12:12:58;;;;;;;;;;;;;;;12.73;17.60;95527.72;5070412;28;20377;-70
2023/03/29 12:15:28;;;;;;;;;;;;;;;13.85;17.70;95530.63;5073823;28;20029;-67
2023/03/29 12:18:01;;;;;;;;;;;;;;;13.64;17.50;95533.47;5073112;28;19932;-66
2023/03/29 12:20:30;;;;;;;;;;;;;;;13.16;17.79;95522.22;5073823;28;19925;-66
2023/03/29 12:23:00;;;;;;;;;;;;;;;13.08;17.98;95530.59;5055068;28;19925;-68
2023/03/29 12:25:33;;;;;;;;;;;;;;;13.42;17.34;95522.31;5073364;28;19993;-69
2023/03/29 12:28:21;;;;;;;;;;;;;;;13.30;17.51;95532.28;5072868;28;19931;-69
2023/03/29 12:30:54;;;;;;;;;;;;;;;13.40;17.53;95535.75;5044532;28;19928;-66
2023/03/29 12:33:47;;;;;;;;;;;;;;;13.28;17.52;95539.63;5073399;28;20372;-69
2023/03/29 12:36:48;;;;;;;;;;;;;;;13.16;18.41;95532.75;5042358;28;19936;-69
2023/03/29 12:39:35;;;;;;;;;;;;;;;12.97;18.41;95546.56;5073166;28;19932;-70
2023/03/29 12:42:21;;;;;;;;;;;;;;;13.58;18.23;95527.38;5073055;28;19975;-68
2023/03/29 12:45:37;;;;;;;;;;;;;;;14.22;18.03;95525.16;5061750;28;19932;-68
2023/03/29 12:48:05;;;;;;;;;;;;;;;14.19;16.97;95536.25;5072459;28;19959;-67
2023/03/29 12:50:33;;;;;;;;;;;;;;;14.68;17.35;95529.44;5071977;28;20429;-68
2023/03/29 12:53:01;;;;;;;;;;;;;;;13.43;17.89;95537.84;5068260;28;20466;-70
2023/03/29 12:55:40;;;;;;;;;;;;;;;13.51;17.59;95523.41;5053943;28;20015;-68
2023/03/29 12:58:30;;;;;;;;;;;;;;;14.15;17.48;95535.16;5069733;28;19933;-67
2023/03/29 13:01:07;;;;;;;;;;;;;;;14.06;18.44;95527.00;5069293;28;20334;-66
2023/03/29 13:03:41;;;;;;;;;;;;;;;14.13;18.68;95526.72;5038821;28;19928;-70
2023/03/29 13:06:09;;;;;;;;;;;;;;;14.93;17.78;95513.56;5070883;28;20298;-68
2023/03/29 13:08:36;;;;;;;;;;;;;;;13.95;18.22;95520.13;5068726;28;19929;-68
2023/03/29 13:11:03;;;;;;;;;;;;;;;14.99;17.82;95525.69;5068128;28;20363;-68
2023/03/29 13:13:35;;;;;;;;;;;;;;;13.68;18.34;95526.63;5070943;28;19958;-67
2023/03/29 13:16:15;;;;;;;;;;;;;;;14.09;17.75;95533.56;5053342;28;20392;-65
2023/03/29 13:18:50;;;;;;;;;;;;;;;13.95;17.86;95537.78;5071206;28;20392;-67
2023/03/29 13:21:49;;;;;;;;;;;;;;;12.89;18.40;95539.91;5070394;28;19925;-68
2023/03/29 13:24:20;;;;;;;;;;;;;;;12.96;18.25;95527.34;5018019;28;20403;-66
2023/03/29 13:26:48;;;;;;;;;;;;;;;13.48;18.64;95529.19;5070347;28;19925;-71
2023/03/29 13:29:28;;;;;;;;;;;;;;;13.52;18.33;95523.16;5071026;28;19929;-66